createdAt,value
2016-09-30T00:00:40.479Z,1011.71
2016-09-30T00:01:40.503Z,1011.71
2016-09-30T00:02:40.525Z,1011.7
2016-09-30T00:03:40.543Z,1011.72
2016-09-30T00:04:40.558Z,1011.7
2016-09-30T00:05:40.582Z,1011.69
2016-09-30T00:06:40.612Z,1011.69
2016-09-30T00:07:40.624Z,1011.69
2016-09-30T00:08:40.649Z,1011.66
2016-09-30T00:09:40.663Z,1011.7
2016-09-30T00:10:40.680Z,1011.7
2016-09-30T00:11:40.704Z,1011.72
2016-09-30T00:12:40.723Z,1011.71
2016-09-30T00:13:40.755Z,1011.74
2016-09-30T00:14:40.759Z,1011.74
2016-09-30T00:15:40.780Z,1011.7
2016-09-30T00:16:40.802Z,1011.76
2016-09-30T00:17:40.825Z,1011.69
2016-09-30T00:18:40.842Z,1011.75
2016-09-30T00:19:40.863Z,1011.8
2016-09-30T00:20:40.886Z,1011.73
2016-09-30T00:21:40.905Z,1011.69
2016-09-30T00:22:40.921Z,1011.69
2016-09-30T00:23:40.939Z,1011.72
2016-09-30T00:24:40.961Z,1011.71
2016-09-30T00:25:40.985Z,1011.74
2016-09-30T00:26:40.999Z,1011.7
2016-09-30T00:27:41.022Z,1011.75
2016-09-30T00:28:41.044Z,1011.74
2016-09-30T00:29:41.068Z,1011.75
2016-09-30T00:30:41.091Z,1011.71
2016-09-30T00:31:41.107Z,1011.71
2016-09-30T00:32:41.125Z,1011.71
2016-09-30T00:33:41.148Z,1011.73
2016-09-30T00:34:41.159Z,1011.73
2016-09-30T00:35:41.191Z,1011.76
2016-09-30T00:36:41.214Z,1011.7
2016-09-30T00:37:41.235Z,1011.7
2016-09-30T00:38:41.245Z,1011.64
2016-09-30T00:39:41.273Z,1011.63
2016-09-30T00:40:41.290Z,1011.69
2016-09-30T00:41:41.315Z,1011.64
2016-09-30T00:42:41.342Z,1011.68
2016-09-30T00:43:41.350Z,1011.68
2016-09-30T00:44:41.422Z,1011.66
2016-09-30T00:45:41.394Z,1011.65
2016-09-30T00:46:41.424Z,1011.66
2016-09-30T00:47:41.435Z,1011.65
2016-09-30T00:48:41.452Z,1011.65
2016-09-30T00:49:41.472Z,1011.68
2016-09-30T00:50:41.488Z,1011.68
2016-09-30T00:51:41.514Z,1011.65
2016-09-30T00:52:41.524Z,1011.6
2016-09-30T00:53:41.559Z,1011.62
2016-09-30T00:54:41.573Z,1011.66
2016-09-30T00:55:41.596Z,1011.63
2016-09-30T00:56:41.613Z,1011.61
2016-09-30T00:57:41.633Z,1011.62
2016-09-30T00:58:41.657Z,1011.63
2016-09-30T00:59:41.694Z,1011.63
2016-09-30T01:00:41.690Z,1011.6
2016-09-30T01:01:41.717Z,1011.64
2016-09-30T01:02:41.744Z,1011.63
2016-09-30T01:03:41.755Z,1011.63
2016-09-30T01:04:41.777Z,1011.66
2016-09-30T01:05:41.803Z,1011.71
2016-09-30T01:06:41.822Z,1011.67
2016-09-30T01:07:41.846Z,1011.7
2016-09-30T01:08:41.861Z,1011.72
2016-09-30T01:09:41.881Z,1011.72
2016-09-30T01:10:41.902Z,1011.67
2016-09-30T01:11:41.921Z,1011.66
2016-09-30T01:12:41.937Z,1011.65
2016-09-30T01:13:41.963Z,1011.63
2016-09-30T01:14:41.981Z,1011.6
2016-09-30T01:15:42.005Z,1011.57
2016-09-30T01:16:42.021Z,1011.6
2016-09-30T01:17:42.039Z,1011.61
2016-09-30T01:18:42.057Z,1011.65
2016-09-30T01:19:42.082Z,1011.68
2016-09-30T01:20:42.099Z,1011.72
2016-09-30T01:21:42.119Z,1011.72
2016-09-30T01:22:42.137Z,1011.74
2016-09-30T01:23:42.162Z,1011.73
2016-09-30T01:24:42.194Z,1011.69
2016-09-30T01:25:42.558Z,1011.63
2016-09-30T01:26:42.229Z,1011.58
2016-09-30T01:27:42.247Z,1011.56
2016-09-30T01:28:42.264Z,1011.62
2016-09-30T01:29:42.282Z,1011.63
2016-09-30T01:30:42.303Z,1011.65
2016-09-30T01:31:42.337Z,1011.63
2016-09-30T01:32:42.353Z,1011.64
2016-09-30T01:33:42.372Z,1011.63
2016-09-30T01:34:42.389Z,1011.65
2016-09-30T01:35:42.411Z,1011.66
2016-09-30T01:36:42.430Z,1011.64
2016-09-30T01:37:42.446Z,1011.65
2016-09-30T01:38:42.475Z,1011.63
2016-09-30T01:39:42.489Z,1011.6
2016-09-30T01:40:42.512Z,1011.6
2016-09-30T01:41:42.537Z,1011.61
2016-09-30T01:42:42.551Z,1011.63
2016-09-30T01:43:42.579Z,1011.63
2016-09-30T01:44:42.601Z,1011.65
2016-09-30T01:45:42.627Z,1011.59
2016-09-30T01:46:42.647Z,1011.55
2016-09-30T01:47:42.657Z,1011.46
2016-09-30T01:48:42.679Z,1011.47
2016-09-30T01:49:42.700Z,1011.54
2016-09-30T01:50:42.728Z,1011.51
2016-09-30T01:51:42.744Z,1011.45
2016-09-30T01:52:42.761Z,1011.45
2016-09-30T01:53:42.780Z,1011.46
2016-09-30T01:54:42.805Z,1011.45
2016-09-30T01:55:42.825Z,1011.44
2016-09-30T01:56:42.843Z,1011.43
2016-09-30T01:57:42.869Z,1011.42
2016-09-30T01:58:42.888Z,1011.39
2016-09-30T01:59:42.913Z,1011.43
2016-09-30T02:00:42.928Z,1011.41
2016-09-30T02:01:42.950Z,1011.41
2016-09-30T02:02:42.969Z,1011.35
2016-09-30T02:03:42.989Z,1011.37
2016-09-30T02:04:43.026Z,1011.42
2016-09-30T02:05:43.029Z,1011.39
2016-09-30T02:06:43.061Z,1011.44
2016-09-30T02:07:43.071Z,1011.44
2016-09-30T02:08:43.099Z,1011.34
2016-09-30T02:09:43.125Z,1011.37
2016-09-30T02:10:43.132Z,1011.39
2016-09-30T02:11:43.210Z,1011.36
2016-09-30T02:12:43.181Z,1011.35
2016-09-30T02:13:43.203Z,1011.33
2016-09-30T02:14:43.221Z,1011.37
2016-09-30T02:15:43.238Z,1011.37
2016-09-30T02:16:43.273Z,1011.39
2016-09-30T02:17:43.285Z,1011.37
2016-09-30T02:18:43.299Z,1011.36
2016-09-30T02:19:43.333Z,1011.41
2016-09-30T02:20:43.371Z,1011.38
2016-09-30T02:21:43.374Z,1011.37
2016-09-30T02:22:43.394Z,1011.33
2016-09-30T02:23:43.408Z,1011.29
2016-09-30T02:24:43.478Z,1011.31
2016-09-30T02:25:43.454Z,1011.28
2016-09-30T02:26:43.474Z,1011.34
2016-09-30T02:27:43.494Z,1011.31
2016-09-30T02:28:43.512Z,1011.33
2016-09-30T02:29:43.533Z,1011.37
2016-09-30T02:30:43.559Z,1011.39
2016-09-30T02:31:43.579Z,1011.42
2016-09-30T02:32:43.598Z,1011.42
2016-09-30T02:33:43.619Z,1011.42
2016-09-30T02:34:43.643Z,1011.42
2016-09-30T02:35:43.759Z,1011.35
2016-09-30T02:36:43.679Z,1011.33
2016-09-30T02:37:43.701Z,1011.31
2016-09-30T02:38:43.719Z,1011.36
2016-09-30T02:39:43.748Z,1011.36
2016-09-30T02:40:43.760Z,1011.41
2016-09-30T02:41:43.779Z,1011.43
2016-09-30T02:42:43.805Z,1011.39
2016-09-30T02:43:43.821Z,1011.43
2016-09-30T02:44:43.851Z,1011.4
2016-09-30T02:45:43.870Z,1011.38
2016-09-30T02:46:43.888Z,1011.38
2016-09-30T02:47:43.912Z,1011.34
2016-09-30T02:48:43.924Z,1011.35
2016-09-30T02:49:43.953Z,1011.37
2016-09-30T02:50:43.973Z,1011.43
2016-09-30T02:51:43.988Z,1011.44
2016-09-30T02:52:44.014Z,1011.4
2016-09-30T02:53:44.031Z,1011.45
2016-09-30T02:54:44.050Z,1011.46
2016-09-30T02:55:44.078Z,1011.4
2016-09-30T02:56:44.104Z,1011.4
2016-09-30T02:57:44.120Z,1011.4
2016-09-30T02:58:44.137Z,1011.37
2016-09-30T02:59:44.159Z,1011.4
2016-09-30T03:00:44.325Z,1011.38
2016-09-30T03:01:44.202Z,1011.32
2016-09-30T03:02:44.215Z,1011.32
2016-09-30T03:03:44.246Z,1011.32
2016-09-30T03:04:44.259Z,1011.33
2016-09-30T03:05:44.299Z,1011.31
2016-09-30T03:06:44.301Z,1011.34
2016-09-30T03:07:44.320Z,1011.3
2016-09-30T03:08:44.342Z,1011.3
2016-09-30T03:09:44.359Z,1011.33
2016-09-30T03:10:44.381Z,1011.37
2016-09-30T03:11:44.399Z,1011.38
2016-09-30T03:12:44.423Z,1011.31
2016-09-30T03:13:44.443Z,1011.3
2016-09-30T03:14:44.470Z,1011.33
2016-09-30T03:15:44.486Z,1011.31
2016-09-30T03:16:44.508Z,1011.34
2016-09-30T03:17:44.527Z,1011.33
2016-09-30T03:18:44.545Z,1011.34
2016-09-30T03:19:44.571Z,1011.35
2016-09-30T03:20:44.594Z,1011.35
2016-09-30T03:21:44.604Z,1011.36
2016-09-30T03:22:44.633Z,1011.36
2016-09-30T03:23:44.647Z,1011.4
2016-09-30T03:24:44.670Z,1011.44
2016-09-30T03:25:44.689Z,1011.44
2016-09-30T03:26:44.708Z,1011.45
2016-09-30T03:27:44.729Z,1011.46
2016-09-30T03:28:44.755Z,1011.48
2016-09-30T03:29:44.769Z,1011.48
2016-09-30T03:30:44.791Z,1011.51
2016-09-30T03:31:44.811Z,1011.54
2016-09-30T03:32:44.831Z,1011.54
2016-09-30T03:33:44.851Z,1011.58
2016-09-30T03:34:44.870Z,1011.58
2016-09-30T03:35:44.895Z,1011.57
2016-09-30T03:36:44.910Z,1011.56
2016-09-30T03:37:44.938Z,1011.55
2016-09-30T03:38:44.953Z,1011.55
2016-09-30T03:39:44.988Z,1011.55
2016-09-30T03:40:44.990Z,1011.53
2016-09-30T03:41:45.015Z,1011.51
2016-09-30T03:42:45.040Z,1011.5
2016-09-30T03:43:45.054Z,1011.52
2016-09-30T03:44:45.077Z,1011.56
2016-09-30T03:45:45.093Z,1011.54
2016-09-30T03:46:45.120Z,1011.54
2016-09-30T03:47:45.142Z,1011.54
2016-09-30T03:48:45.163Z,1011.56
2016-09-30T03:49:45.196Z,1011.57
2016-09-30T03:50:45.198Z,1011.61
2016-09-30T03:51:45.217Z,1011.61
2016-09-30T03:52:45.239Z,1011.6
2016-09-30T03:53:45.259Z,1011.62
2016-09-30T03:54:45.287Z,1011.63
2016-09-30T03:55:45.301Z,1011.58
2016-09-30T03:56:45.320Z,1011.57
2016-09-30T03:57:45.342Z,1011.64
2016-09-30T03:58:45.360Z,1011.7
2016-09-30T03:59:45.379Z,1011.73
2016-09-30T04:00:45.461Z,1011.76
2016-09-30T04:01:45.420Z,1011.69
2016-09-30T04:02:45.467Z,1011.68
2016-09-30T04:03:45.468Z,1011.73
2016-09-30T04:04:45.484Z,1011.69
2016-09-30T04:05:45.502Z,1011.69
2016-09-30T04:06:45.519Z,1011.7
2016-09-30T04:07:45.541Z,1011.7
2016-09-30T04:08:45.568Z,1011.69
2016-09-30T04:09:45.588Z,1011.71
2016-09-30T04:10:45.612Z,1011.75
2016-09-30T04:11:45.717Z,1011.74
2016-09-30T04:12:45.651Z,1011.72
2016-09-30T04:13:45.670Z,1011.74
2016-09-30T04:14:45.692Z,1011.73
2016-09-30T04:15:45.708Z,1011.68
2016-09-30T04:16:45.733Z,1011.73
2016-09-30T04:17:45.751Z,1011.75
2016-09-30T04:18:45.781Z,1011.71
2016-09-30T04:19:45.791Z,1011.75
2016-09-30T04:20:45.814Z,1011.69
2016-09-30T04:21:45.831Z,1011.7
2016-09-30T04:22:45.851Z,1011.71
2016-09-30T04:23:45.870Z,1011.71
2016-09-30T04:24:45.903Z,1011.71
2016-09-30T04:25:45.913Z,1011.74
2016-09-30T04:26:46.032Z,1011.72
2016-09-30T04:27:45.951Z,1011.71
2016-09-30T04:28:45.974Z,1011.73
2016-09-30T04:29:45.994Z,1011.69
2016-09-30T04:30:46.064Z,1011.77
2016-09-30T04:31:46.032Z,1011.8
2016-09-30T04:32:46.052Z,1011.81
2016-09-30T04:33:46.066Z,1011.78
2016-09-30T04:34:46.099Z,1011.74
2016-09-30T04:35:46.115Z,1011.74
2016-09-30T04:36:46.137Z,1011.74
2016-09-30T04:37:46.159Z,1011.73
2016-09-30T04:38:46.172Z,1011.75
2016-09-30T04:39:46.195Z,1011.85
2016-09-30T04:40:46.224Z,1011.91
2016-09-30T04:41:46.230Z,1011.9
2016-09-30T04:42:46.259Z,1011.93
2016-09-30T04:43:46.284Z,1011.91
2016-09-30T04:44:46.299Z,1011.93
2016-09-30T04:45:46.324Z,1011.92
2016-09-30T04:46:46.350Z,1011.92
2016-09-30T04:47:46.364Z,1011.91
2016-09-30T04:48:46.379Z,1011.96
2016-09-30T04:49:46.410Z,1011.98
2016-09-30T04:50:46.421Z,1011.99
2016-09-30T04:51:46.438Z,1011.99
2016-09-30T04:52:46.467Z,1011.98
2016-09-30T04:53:46.479Z,1012
2016-09-30T04:54:46.502Z,1012.03
2016-09-30T04:55:46.523Z,1012.03
2016-09-30T04:56:46.538Z,1011.98
2016-09-30T04:57:46.557Z,1011.97
2016-09-30T04:58:46.581Z,1011.98
2016-09-30T04:59:46.604Z,1011.97
2016-09-30T05:00:46.619Z,1011.97
2016-09-30T05:01:46.638Z,1011.96
2016-09-30T05:02:46.658Z,1011.97
2016-09-30T05:03:46.690Z,1011.99
2016-09-30T05:04:46.709Z,1011.96
2016-09-30T05:05:46.719Z,1011.95
2016-09-30T05:06:46.741Z,1011.99
2016-09-30T05:07:46.769Z,1012
2016-09-30T05:08:46.784Z,1012.03
2016-09-30T05:09:46.804Z,1012.02
2016-09-30T05:10:46.828Z,1012.06
2016-09-30T05:11:46.847Z,1012.07
2016-09-30T05:12:46.873Z,1012.07
2016-09-30T05:13:46.893Z,1012.05
2016-09-30T05:14:46.914Z,1012.06
2016-09-30T05:15:46.927Z,1012.1
2016-09-30T05:16:46.945Z,1012.05
2016-09-30T05:17:46.974Z,1012.07
2016-09-30T05:18:46.992Z,1012.05
2016-09-30T05:19:47.018Z,1012.11
2016-09-30T05:20:47.028Z,1012.11
2016-09-30T05:21:47.051Z,1012.08
2016-09-30T05:22:47.072Z,1012.09
2016-09-30T05:23:47.087Z,1012
2016-09-30T05:24:47.112Z,1012.01
2016-09-30T05:25:47.183Z,1011.94
2016-09-30T05:26:47.150Z,1011.94
2016-09-30T05:27:47.193Z,1011.97
2016-09-30T05:28:47.192Z,1012.05
2016-09-30T05:29:47.211Z,1012.05
2016-09-30T05:30:47.230Z,1012.06
2016-09-30T05:31:47.252Z,1012.04
2016-09-30T05:32:47.273Z,1011.96
2016-09-30T05:33:47.291Z,1011.97
2016-09-30T05:34:47.312Z,1011.98
2016-09-30T05:35:47.381Z,1012.04
2016-09-30T05:36:47.354Z,1012.04
2016-09-30T05:37:47.379Z,1012.07
2016-09-30T05:38:47.410Z,1012.01
2016-09-30T05:39:47.418Z,1012.03
2016-09-30T05:40:47.544Z,1012.06
2016-09-30T05:41:47.461Z,1012.03
2016-09-30T05:42:47.482Z,1012.02
2016-09-30T05:43:47.494Z,1012.01
2016-09-30T05:44:47.515Z,1011.99
2016-09-30T05:45:47.539Z,1011.99
2016-09-30T05:46:47.553Z,1011.99
2016-09-30T05:47:47.580Z,1012.07
2016-09-30T05:48:47.595Z,1012.04
2016-09-30T05:49:47.620Z,1012.03
2016-09-30T05:50:47.636Z,1012.08
2016-09-30T05:51:47.669Z,1012.11
2016-09-30T05:52:47.675Z,1012.13
2016-09-30T05:53:47.702Z,1012.12
2016-09-30T05:54:47.720Z,1012.1
2016-09-30T05:55:47.787Z,1012.07
2016-09-30T05:56:47.767Z,1012.07
2016-09-30T05:57:47.781Z,1012.1
2016-09-30T05:58:47.794Z,1012.08
2016-09-30T05:59:47.822Z,1012.1
2016-09-30T06:00:47.843Z,1012.09
2016-09-30T06:01:47.859Z,1012.1
2016-09-30T06:02:47.879Z,1012.08
2016-09-30T06:03:47.908Z,1012.03
2016-09-30T06:04:47.925Z,1012.03
2016-09-30T06:05:47.941Z,1012.01
2016-09-30T06:06:48.014Z,1012.03
2016-09-30T06:07:47.988Z,1012.02
2016-09-30T06:08:48.002Z,1012.05
2016-09-30T06:09:48.028Z,1012.12
2016-09-30T06:10:48.040Z,1012.13
2016-09-30T06:11:48.071Z,1012.14
2016-09-30T06:12:48.082Z,1012.11
2016-09-30T06:13:48.109Z,1012.07
2016-09-30T06:14:48.124Z,1012
2016-09-30T06:15:48.145Z,1012.05
2016-09-30T06:16:48.176Z,1012.03
2016-09-30T06:17:48.187Z,1012.04
2016-09-30T06:18:48.214Z,1012.05
2016-09-30T06:19:48.234Z,1012.15
2016-09-30T06:20:48.245Z,1012.16
2016-09-30T06:21:48.270Z,1012.2
2016-09-30T06:22:48.291Z,1012.13
2016-09-30T06:23:48.311Z,1012.15
2016-09-30T06:24:48.339Z,1012.18
2016-09-30T06:25:48.352Z,1012.13
2016-09-30T06:26:48.371Z,1012.12
2016-09-30T06:27:48.399Z,1012.14
2016-09-30T06:28:48.412Z,1012.12
2016-09-30T06:29:48.436Z,1012.14
2016-09-30T06:30:48.463Z,1012.19
2016-09-30T06:31:48.483Z,1012.18
2016-09-30T06:32:48.502Z,1012.22
2016-09-30T06:33:48.517Z,1012.22
2016-09-30T06:34:48.536Z,1012.21
2016-09-30T06:35:48.561Z,1012.24
2016-09-30T06:36:48.577Z,1012.28
2016-09-30T06:37:48.600Z,1012.25
2016-09-30T06:38:48.623Z,1012.21
2016-09-30T06:39:48.636Z,1012.25
2016-09-30T06:40:48.666Z,1012.25
2016-09-30T06:41:48.679Z,1012.27
2016-09-30T06:42:48.709Z,1012.32
2016-09-30T06:43:48.735Z,1012.31
2016-09-30T06:44:48.749Z,1012.29
2016-09-30T06:45:48.773Z,1012.31
2016-09-30T06:46:48.798Z,1012.28
2016-09-30T06:47:48.810Z,1012.23
2016-09-30T06:48:48.830Z,1012.28
2016-09-30T06:49:48.850Z,1012.22
2016-09-30T06:50:48.874Z,1012.23
2016-09-30T06:51:48.896Z,1012.24
2016-09-30T06:52:48.923Z,1012.27
2016-09-30T06:53:48.945Z,1012.3
2016-09-30T06:54:48.973Z,1012.29
2016-09-30T06:55:48.984Z,1012.33
2016-09-30T06:56:49.004Z,1012.31
2016-09-30T06:57:49.030Z,1012.29
2016-09-30T06:58:49.040Z,1012.3
2016-09-30T06:59:49.060Z,1012.28
2016-09-30T07:00:49.087Z,1012.33
2016-09-30T07:01:49.108Z,1012.28
2016-09-30T07:02:49.130Z,1012.33
2016-09-30T07:03:49.148Z,1012.35
2016-09-30T07:04:49.172Z,1012.41
2016-09-30T07:05:49.243Z,1012.44
2016-09-30T07:06:49.214Z,1012.45
2016-09-30T07:07:49.239Z,1012.47
2016-09-30T07:08:49.253Z,1012.5
2016-09-30T07:09:49.278Z,1012.52
2016-09-30T07:10:49.297Z,1012.52
2016-09-30T07:11:49.317Z,1012.55
2016-09-30T07:12:49.344Z,1012.54
2016-09-30T07:13:49.359Z,1012.59
2016-09-30T07:14:49.379Z,1012.58
2016-09-30T07:15:49.400Z,1012.56
2016-09-30T07:16:49.431Z,1012.57
2016-09-30T07:17:49.445Z,1012.58
2016-09-30T07:18:49.523Z,1012.6
2016-09-30T07:19:49.491Z,1012.6
2016-09-30T07:20:49.571Z,1012.62
2016-09-30T07:21:49.527Z,1012.63
2016-09-30T07:22:49.550Z,1012.66
2016-09-30T07:23:49.575Z,1012.65
2016-09-30T07:24:49.594Z,1012.65
2016-09-30T07:25:49.673Z,1012.72
2016-09-30T07:26:49.641Z,1012.71
2016-09-30T07:27:49.668Z,1012.73
2016-09-30T07:28:49.690Z,1012.78
2016-09-30T07:29:49.796Z,1012.78
2016-09-30T07:30:49.729Z,1012.78
2016-09-30T07:31:49.753Z,1012.76
2016-09-30T07:32:49.777Z,1012.74
2016-09-30T07:33:49.789Z,1012.76
2016-09-30T07:34:49.819Z,1012.76
2016-09-30T07:35:49.841Z,1012.74
2016-09-30T07:36:49.860Z,1012.75
2016-09-30T07:37:49.878Z,1012.78
2016-09-30T07:38:49.910Z,1012.78
2016-09-30T07:39:49.930Z,1012.8
2016-09-30T07:40:50.051Z,1012.76
2016-09-30T07:41:49.968Z,1012.82
2016-09-30T07:42:50.087Z,1012.81
2016-09-30T07:43:50.019Z,1012.79
2016-09-30T07:44:50.086Z,1012.81
2016-09-30T07:45:50.058Z,1012.78
2016-09-30T07:46:50.084Z,1012.8
2016-09-30T07:47:50.108Z,1012.76
2016-09-30T07:48:50.121Z,1012.77
2016-09-30T07:49:50.156Z,1012.77
2016-09-30T07:50:50.179Z,1012.84
2016-09-30T07:51:50.194Z,1012.85
2016-09-30T07:52:50.216Z,1012.83
2016-09-30T07:53:50.337Z,1012.86
2016-09-30T07:54:50.270Z,1012.83
2016-09-30T07:55:50.282Z,1012.83
2016-09-30T07:56:50.311Z,1012.87
2016-09-30T07:57:50.331Z,1012.82
2016-09-30T07:58:50.345Z,1012.84
2016-09-30T07:59:50.384Z,1012.85
2016-09-30T08:00:50.597Z,1012.83
2016-09-30T08:01:50.417Z,1012.88
2016-09-30T08:02:50.446Z,1012.85
2016-09-30T08:03:50.469Z,1012.9
2016-09-30T08:04:50.489Z,1012.98
2016-09-30T08:05:50.511Z,1012.99
2016-09-30T08:06:50.538Z,1012.98
2016-09-30T08:07:50.552Z,1013
2016-09-30T08:08:50.583Z,1012.99
2016-09-30T08:09:50.611Z,1012.99
2016-09-30T08:10:50.624Z,1013.05
2016-09-30T08:11:50.647Z,1013.06
2016-09-30T08:12:50.671Z,1013.07
2016-09-30T08:13:50.694Z,1013.13
2016-09-30T08:14:50.720Z,1013.15
2016-09-30T08:15:50.736Z,1013.22
2016-09-30T08:16:50.763Z,1013.21
2016-09-30T08:17:50.788Z,1013.21
2016-09-30T08:18:50.810Z,1013.26
2016-09-30T08:19:50.829Z,1013.16
2016-09-30T08:20:50.870Z,1013.2
2016-09-30T08:21:50.876Z,1013.22
2016-09-30T08:22:50.899Z,1013.24
2016-09-30T08:23:50.917Z,1013.21
2016-09-30T08:24:50.949Z,1013.24
2016-09-30T08:25:50.963Z,1013.25
2016-09-30T08:26:50.988Z,1013.23
2016-09-30T08:27:51.017Z,1013.25
2016-09-30T08:28:51.042Z,1013.23
2016-09-30T08:29:51.057Z,1013.22
2016-09-30T08:30:51.085Z,1013.25
2016-09-30T08:31:51.106Z,1013.25
2016-09-30T08:32:51.132Z,1013.28
2016-09-30T08:33:51.157Z,1013.27
2016-09-30T08:34:51.185Z,1013.22
2016-09-30T08:35:51.196Z,1013.25
2016-09-30T08:36:51.226Z,1013.27
2016-09-30T08:37:51.241Z,1013.18
2016-09-30T08:38:51.264Z,1013.19
2016-09-30T08:39:51.299Z,1013.18
2016-09-30T08:40:51.318Z,1013.21
2016-09-30T08:41:51.336Z,1013.27
2016-09-30T08:42:51.362Z,1013.24
2016-09-30T08:43:51.387Z,1013.22
2016-09-30T08:44:51.405Z,1013.23
2016-09-30T08:45:51.438Z,1013.25
2016-09-30T08:46:51.459Z,1013.21
2016-09-30T08:47:51.477Z,1013.2
2016-09-30T08:48:51.506Z,1013.19
2016-09-30T08:49:51.531Z,1013.17
2016-09-30T08:50:51.809Z,1013.15
2016-09-30T08:51:51.575Z,1013.14
2016-09-30T08:52:51.649Z,1013.14
2016-09-30T08:53:51.615Z,1013.13
2016-09-30T08:54:51.648Z,1013.11
2016-09-30T08:55:51.667Z,1013.1
2016-09-30T08:56:51.698Z,1013.06
2016-09-30T08:57:51.715Z,1013.09
2016-09-30T08:58:51.739Z,1013.08
2016-09-30T08:59:51.759Z,1013.03
2016-09-30T09:00:51.787Z,1013.07
2016-09-30T09:01:51.811Z,1013.12
2016-09-30T09:02:51.834Z,1013.16
2016-09-30T09:03:51.870Z,1013.13
2016-09-30T09:04:51.880Z,1013.2
2016-09-30T09:05:52.006Z,1013.26
2016-09-30T09:06:51.932Z,1013.21
2016-09-30T09:07:51.956Z,1013.23
2016-09-30T09:08:51.980Z,1013.26
2016-09-30T09:09:52.017Z,1013.3
2016-09-30T09:10:52.033Z,1013.31
2016-09-30T09:11:52.057Z,1013.32
2016-09-30T09:12:52.083Z,1013.28
2016-09-30T09:13:52.114Z,1013.3
2016-09-30T09:14:52.127Z,1013.28
2016-09-30T09:15:52.459Z,1013.27
2016-09-30T09:16:52.177Z,1013.25
2016-09-30T09:17:52.206Z,1013.25
2016-09-30T09:18:52.230Z,1013.31
2016-09-30T09:19:52.255Z,1013.3
2016-09-30T09:20:52.289Z,1013.3
2016-09-30T09:21:52.307Z,1013.31
2016-09-30T09:22:52.326Z,1013.33
2016-09-30T09:23:52.349Z,1013.29
2016-09-30T09:24:52.372Z,1013.28
2016-09-30T09:25:52.400Z,1013.25
2016-09-30T09:26:52.431Z,1013.22
2016-09-30T09:27:52.452Z,1013.18
2016-09-30T09:28:52.478Z,1013.2
2016-09-30T09:29:52.496Z,1013.13
2016-09-30T09:30:52.526Z,1013.2
2016-09-30T09:31:52.550Z,1013.2
2016-09-30T09:32:52.575Z,1013.22
2016-09-30T09:33:52.609Z,1013.22
2016-09-30T09:34:52.623Z,1013.2
2016-09-30T09:35:52.656Z,1013.21
2016-09-30T09:36:52.683Z,1013.19
2016-09-30T09:37:52.903Z,1013.2
2016-09-30T09:38:52.728Z,1013.21
2016-09-30T09:39:52.752Z,1013.19
2016-09-30T09:40:52.779Z,1013.19
2016-09-30T09:41:52.804Z,1013.2
2016-09-30T09:42:52.827Z,1013.16
2016-09-30T09:43:52.861Z,1013.15
2016-09-30T09:44:52.890Z,1013.12
2016-09-30T09:45:52.926Z,1013.09
2016-09-30T09:46:52.934Z,1013.12
2016-09-30T09:47:52.958Z,1013.09
2016-09-30T09:48:52.990Z,1013.07
2016-09-30T09:49:53.011Z,1013.09
2016-09-30T09:50:53.045Z,1013.13
2016-09-30T09:51:53.058Z,1013.13
2016-09-30T09:52:53.089Z,1013.08
2016-09-30T09:53:53.109Z,1013.07
2016-09-30T09:54:53.136Z,1013.13
2016-09-30T09:55:53.164Z,1013.19
2016-09-30T09:56:53.187Z,1013.17
2016-09-30T09:57:53.214Z,1013.19
2016-09-30T09:58:53.242Z,1013.2
2016-09-30T09:59:53.276Z,1013.17
2016-09-30T10:00:53.295Z,1013.22
2016-09-30T10:01:53.317Z,1013.19
2016-09-30T10:02:53.340Z,1013.22
2016-09-30T10:03:53.369Z,1013.22
2016-09-30T10:04:53.398Z,1013.2
2016-09-30T10:05:53.468Z,1013.16
2016-09-30T10:06:53.453Z,1013.15
2016-09-30T10:07:53.675Z,1013.09
2016-09-30T10:08:53.497Z,1013.06
2016-09-30T10:09:53.531Z,1013.04
2016-09-30T10:10:53.548Z,1013.08
2016-09-30T10:11:53.575Z,1013.08
2016-09-30T10:12:53.600Z,1013.1
2016-09-30T10:13:53.629Z,1013.09
2016-09-30T10:14:53.653Z,1013.09
2016-09-30T10:15:53.678Z,1013.12
2016-09-30T10:16:53.713Z,1013.08
2016-09-30T10:17:53.743Z,1013.04
2016-09-30T10:18:53.760Z,1013.05
2016-09-30T10:19:53.981Z,1013.07
2016-09-30T10:20:53.913Z,1013.1
2016-09-30T10:21:53.830Z,1013.11
2016-09-30T10:22:53.854Z,1013.1
2016-09-30T10:23:53.885Z,1013.16
2016-09-30T10:24:53.916Z,1013.11
2016-09-30T10:25:53.985Z,1013.11
2016-09-30T10:26:53.964Z,1013.11
2016-09-30T10:27:53.987Z,1013.1
2016-09-30T10:28:54.008Z,1013.13
2016-09-30T10:29:54.044Z,1013.08
2016-09-30T10:30:54.062Z,1013.07
2016-09-30T10:31:54.091Z,1013.11
2016-09-30T10:32:54.113Z,1013.15
2016-09-30T10:33:54.145Z,1013.07
2016-09-30T10:34:54.167Z,1013.11
2016-09-30T10:35:54.190Z,1013.11
2016-09-30T10:36:54.223Z,1013.09
2016-09-30T10:37:54.246Z,1013.08
2016-09-30T10:38:54.270Z,1013.09
2016-09-30T10:39:54.294Z,1013.09
2016-09-30T10:40:54.323Z,1013.1
2016-09-30T10:41:54.353Z,1013.11
2016-09-30T10:42:54.375Z,1013.1
2016-09-30T10:43:54.403Z,1013.12
2016-09-30T10:44:54.431Z,1013.14
2016-09-30T10:45:54.702Z,1013.17
2016-09-30T10:46:54.723Z,1013.1
2016-09-30T10:47:54.700Z,1013.09
2016-09-30T10:48:54.727Z,1013.07
2016-09-30T10:49:54.709Z,1013.15
2016-09-30T10:50:54.731Z,1013.22
2016-09-30T10:51:54.727Z,1013.19
2016-09-30T10:52:54.735Z,1013.19
2016-09-30T10:53:54.711Z,1013.14
2016-09-30T10:54:54.743Z,1013.1
2016-09-30T10:55:54.774Z,1013.11
2016-09-30T10:56:54.739Z,1013.05
2016-09-30T10:57:54.776Z,1013.12
2016-09-30T10:58:54.790Z,1013.06
2016-09-30T10:59:54.817Z,1013.11
2016-09-30T11:00:54.845Z,1013.13
2016-09-30T11:01:54.870Z,1013.12
2016-09-30T11:02:54.904Z,1013.07
2016-09-30T11:03:54.922Z,1013.09
2016-09-30T11:04:54.949Z,1013.13
2016-09-30T11:05:55.031Z,1013.11
2016-09-30T11:06:55.001Z,1013.07
2016-09-30T11:07:55.033Z,1013.03
2016-09-30T11:08:55.052Z,1013
2016-09-30T11:09:55.076Z,1013.06
2016-09-30T11:10:55.155Z,1013
2016-09-30T11:11:55.131Z,1013.04
2016-09-30T11:12:55.152Z,1013.11
2016-09-30T11:13:55.185Z,1013.21
2016-09-30T11:14:55.205Z,1013.1
2016-09-30T11:15:55.234Z,1013.04
2016-09-30T11:16:55.255Z,1013.01
2016-09-30T11:17:55.278Z,1013.08
2016-09-30T11:18:55.315Z,1013.08
2016-09-30T11:19:55.330Z,1013.05
2016-09-30T11:20:55.360Z,1013.1
2016-09-30T11:21:55.388Z,1013.12
2016-09-30T11:22:55.410Z,1013.14
2016-09-30T11:23:55.449Z,1013.1
2016-09-30T11:24:55.466Z,1013.17
2016-09-30T11:25:55.537Z,1013.16
2016-09-30T11:26:55.526Z,1013.16
2016-09-30T11:27:55.545Z,1013.15
2016-09-30T11:28:55.569Z,1013.15
2016-09-30T11:29:55.595Z,1013.18
2016-09-30T11:30:55.622Z,1013.18
2016-09-30T11:31:55.653Z,1013.22
2016-09-30T11:32:55.683Z,1013.19
2016-09-30T11:33:55.703Z,1013.15
2016-09-30T11:34:55.726Z,1013.22
2016-09-30T11:35:55.856Z,1013.17
2016-09-30T11:36:55.781Z,1013.13
2016-09-30T11:37:55.806Z,1013.12
2016-09-30T11:38:55.829Z,1013.13
2016-09-30T11:39:55.862Z,1013.12
2016-09-30T11:40:55.940Z,1013.1
2016-09-30T11:41:55.921Z,1013.04
2016-09-30T11:42:55.937Z,1012.99
2016-09-30T11:43:55.969Z,1012.98
2016-09-30T11:44:55.998Z,1013.01
2016-09-30T11:45:56.020Z,1013.01
2016-09-30T11:46:56.050Z,1013.05
2016-09-30T11:47:56.077Z,1013.03
2016-09-30T11:48:56.201Z,1012.94
2016-09-30T11:49:56.120Z,1012.89
2016-09-30T11:50:56.205Z,1012.86
2016-09-30T11:51:56.185Z,1012.92
2016-09-30T11:52:56.215Z,1012.91
2016-09-30T11:53:56.234Z,1012.83
2016-09-30T11:54:56.258Z,1012.86
2016-09-30T11:55:56.285Z,1012.87
2016-09-30T11:56:56.317Z,1012.81
2016-09-30T11:57:56.344Z,1012.83
2016-09-30T11:58:56.366Z,1012.84
2016-09-30T11:59:56.393Z,1012.88
2016-09-30T12:00:56.424Z,1012.85
2016-09-30T12:01:56.455Z,1012.9
2016-09-30T12:02:56.472Z,1012.89
2016-09-30T12:03:56.502Z,1012.9
2016-09-30T12:04:56.532Z,1012.88
2016-09-30T12:05:56.559Z,1012.85
2016-09-30T12:06:56.581Z,1012.88
2016-09-30T12:07:56.609Z,1012.9
2016-09-30T12:08:56.640Z,1012.86